CheckWX is a tool to help pilots better visualize weather data.  It is not intended as a substitute for an official pre-flight weather briefing.

23:28:21 UTC

LGKC TAF
Kithira Airport
Kithira Island, Greece
TAF LGKC 232000Z 2321/2406 04020KT 9999 FEW020 TEMPO 2321/2406 04023G33KT

Mar-23@
21:00 UTC

Mar-23 @ 21:00 UTC

Mar-24@
06:00 UTC

Mar-24 @ 06:00 UTC

TAF LGKC 232000Z 2321/2406 04020KT 9999 FEW020
Wind
  • 040° at 20 KTS
Cloud Levels
  • Few at 2,000' AGL

Mar-23@
21:00 UTC

Mar-23 @ 21:00 UTC

Mar-24@
06:00 UTC

Mar-24 @ 06:00 UTC

TEMPO 2321/2406 04023G33KT

Temporary

Temporary Changes expected for less than half the time period

Wind
  • 040° at 23 KTS
  • {Gusting to 33 KTS